Time;durP1;ratioP1;P1;durP2;ratioP2;P2;SDS_P1;SDS_P2;PMS_P1;PMS_P2;Temp;Humidity;BMP_temperature;BMP_pressure;BME280_temperature;BME280_humidity;BME280_pressure;Samples;Min_cycle;Max_cycle;Signal;HPM_P1;HPM_P2
2021/06/01 07:03:15;;;;;;;8.63;3.20;;;;;;;;;;5042728;22;20060;-43
2021/06/01 07:05:42;;;;;;;5.37;3.20;;;;;;;;;;5030483;28;20166;-48
2021/06/01 07:08:08;;;;;;;7.28;3.83;;;;;;;;;;5032123;28;20105;-44
2021/06/01 07:10:34;;;;;;;5.18;3.60;;;;;;;;;;5041242;28;20041;-45
2021/06/01 07:13:01;;;;;;;8.18;3.90;;;;;;;;;;5050912;28;20341;-47
2021/06/01 07:15:27;;;;;;;7.68;3.90;;;;;;;;;;5024083;28;20147;-45
2021/06/01 07:17:55;;;;;;;9.93;4.20;;;;;;;;;;5040878;28;20400;-44
2021/06/01 07:20:21;;;;;;;7.53;3.83;;;;;;;;;;5032350;28;20189;-44
2021/06/01 07:22:47;;;;;;;7.72;3.78;;;;;;;;;;5022082;28;20033;-43
2021/06/01 07:25:16;;;;;;;6.32;3.58;;;;;;;;;;5025176;28;20082;-42
2021/06/01 07:27:42;;;;;;;8.90;3.90;;;;;;;;;;5036372;28;20026;-46
2021/06/01 07:30:09;;;;;;;8.90;3.63;;;;;;;;;;5031099;28;20525;-45
2021/06/01 07:32:35;;;;;;;7.60;3.80;;;;;;;;;;5029620;28;20021;-49
2021/06/01 07:35:02;;;;;;;13.05;4.10;;;;;;;;;;5041270;28;20227;-45
2021/06/01 07:37:28;;;;;;;6.40;3.50;;;;;;;;;;5020460;28;20029;-44
2021/06/01 07:39:54;;;;;;;5.97;3.60;;;;;;;;;;5038754;28;20426;-43
2021/06/01 07:42:20;;;;;;;5.78;3.22;;;;;;;;;;5036245;28;20022;-43
2021/06/01 07:44:46;;;;;;;5.40;3.42;;;;;;;;;;5043796;28;20032;-46
2021/06/01 07:47:12;;;;;;;5.20;3.38;;;;;;;;;;5034573;28;20032;-43
2021/06/01 07:49:38;;;;;;;7.60;3.55;;;;;;;;;;5046627;28;20424;-45
2021/06/01 07:52:04;;;;;;;6.63;4.03;;;;;;;;;;5042591;28;20440;-46
2021/06/01 07:54:32;;;;;;;9.85;3.58;;;;;;;;;;5049848;28;20120;-45
2021/06/01 07:56:58;;;;;;;7.38;3.40;;;;;;;;;;5039294;28;20071;-44
2021/06/01 07:59:25;;;;;;;5.10;3.30;;;;;;;;;;5032859;28;20096;-44
2021/06/01 08:01:51;;;;;;;5.22;3.10;;;;;;;;;;5044604;28;20124;-45
2021/06/01 08:04:17;;;;;;;4.97;3.28;;;;;;;;;;5040696;28;20099;-44
2021/06/01 08:06:43;;;;;;;4.13;2.97;;;;;;;;;;5049896;28;20039;-45
2021/06/01 08:09:09;;;;;;;5.17;3.23;;;;;;;;;;5036493;28;20489;-47
2021/06/01 08:11:36;;;;;;;5.35;3.22;;;;;;;;;;5050065;28;20323;-44
2021/06/01 08:14:03;;;;;;;4.50;3.30;;;;;;;;;;5042488;28;20490;-44
2021/06/01 08:16:31;;;;;;;5.50;3.20;;;;;;;;;;5041798;28;20051;-46
2021/06/01 08:21:48;;;;;;;5.43;3.35;;;;;;;;;;5043626;28;20047;-45
2021/06/01 08:24:14;;;;;;;4.75;3.20;;;;;;;;;;5024437;28;20469;-46
2021/06/01 08:26:40;;;;;;;4.53;2.83;;;;;;;;;;5029710;28;20036;-44
2021/06/01 08:29:07;;;;;;;3.70;3.03;;;;;;;;;;5030155;28;20101;-45
2021/06/01 08:31:33;;;;;;;4.35;2.65;;;;;;;;;;5040915;28;20446;-45
2021/06/01 08:33:59;;;;;;;4.20;2.93;;;;;;;;;;5042808;28;20063;-44
2021/06/01 08:36:27;;;;;;;4.32;2.97;;;;;;;;;;5037979;28;20021;-44
2021/06/01 08:38:54;;;;;;;4.43;3.15;;;;;;;;;;5033862;28;20034;-45
2021/06/01 08:41:24;;;;;;;3.75;3.08;;;;;;;;;;5030210;28;20022;-44
2021/06/01 08:44:01;;;;;;;6.70;3.53;;;;;;;;;;5042972;28;20087;-44
2021/06/01 08:46:28;;;;;;;4.72;3.20;;;;;;;;;;5032251;28;20417;-43
2021/06/01 08:48:56;;;;;;;4.47;3.40;;;;;;;;;;5031683;28;20033;-43
2021/06/01 08:51:24;;;;;;;3.65;2.88;;;;;;;;;;5029525;28;20424;-43
2021/06/01 08:53:51;;;;;;;5.55;3.15;;;;;;;;;;5033801;28;20044;-44
2021/06/01 08:56:18;;;;;;;5.07;3.08;;;;;;;;;;5039243;28;20072;-44
2021/06/01 08:58:45;;;;;;;6.25;3.63;;;;;;;;;;5052744;28;20032;-45
2021/06/01 09:01:14;;;;;;;4.00;2.75;;;;;;;;;;5053400;28;20033;-44
2021/06/01 09:04:00;;;;;;;4.78;3.00;;;;;;;;;;5046033;28;20065;-45
2021/06/01 09:06:49;;;;;;;5.30;2.95;;;;;;;;;;5032581;28;20032;-44
2021/06/01 09:22:47;;;;;;;5.95;2.95;;;;;;;;;;4978776;28;20110;-45
2021/06/01 09:25:19;;;;;;;5.15;3.47;;;;;;;;;;4974809;28;20555;-44
2021/06/01 09:27:52;;;;;;;5.63;3.63;;;;;;;;;;4985772;28;20030;-47
2021/06/01 09:30:31;;;;;;;4.75;3.50;;;;;;;;;;4992846;28;20050;-45
2021/06/01 09:32:57;;;;;;;4.13;2.88;;;;;;;;;;4984588;28;20038;-45
2021/06/01 09:35:40;;;;;;;3.77;2.97;;;;;;;;;;4984268;28;20034;-47
2021/06/01 09:38:09;;;;;;;5.32;2.92;;;;;;;;;;4992206;28;20038;-45
2021/06/01 09:40:35;;;;;;;4.85;3.00;;;;;;;;;;4992244;28;20026;-44
2021/06/01 09:43:01;;;;;;;5.28;3.33;;;;;;;;;;4970899;28;20114;-42
2021/06/01 09:45:27;;;;;;;4.30;3.10;;;;;;;;;;4991879;28;20035;-42
2021/06/01 09:48:03;;;;;;;4.05;3.08;;;;;;;;;;4992051;28;20493;-43
2021/06/01 09:50:36;;;;;;;5.15;3.03;;;;;;;;;;4991279;28;20089;-45
2021/06/01 09:53:06;;;;;;;5.78;3.25;;;;;;;;;;4975282;28;20141;-43
2021/06/01 09:55:36;;;;;;;7.28;3.53;;;;;;;;;;4974437;28;20090;-42
2021/06/01 09:58:07;;;;;;;4.53;3.45;;;;;;;;;;4966656;28;20030;-43
2021/06/01 10:00:35;;;;;;;8.15;4.35;;;;;;;;;;4979190;28;20447;-44
2021/06/01 10:03:05;;;;;;;6.03;3.50;;;;;;;;;;5002234;28;20034;-43
2021/06/01 10:05:35;;;;;;;6.80;3.63;;;;;;;;;;4988580;28;20064;-44
2021/06/01 10:08:10;;;;;;;5.20;3.63;;;;;;;;;;4979363;28;20111;-44
2021/06/01 10:10:37;;;;;;;6.32;3.58;;;;;;;;;;4992019;28;20046;-43
2021/06/01 10:13:04;;;;;;;7.03;4.33;;;;;;;;;;4987473;28;20038;-42
2021/06/01 10:15:32;;;;;;;6.72;3.65;;;;;;;;;;4993770;28;20154;-41
2021/06/01 10:17:58;;;;;;;7.13;3.88;;;;;;;;;;5006894;28;20474;-43
2021/06/01 10:20:26;;;;;;;5.25;4.00;;;;;;;;;;4991728;28;20081;-44
2021/06/01 10:22:52;;;;;;;7.32;3.67;;;;;;;;;;5010982;28;20537;-45
2021/06/01 10:25:20;;;;;;;6.55;4.50;;;;;;;;;;5010846;28;20169;-43
2021/06/01 10:27:47;;;;;;;7.15;4.65;;;;;;;;;;4992585;28;20037;-43
2021/06/01 10:30:15;;;;;;;7.40;4.25;;;;;;;;;;5002120;28;20034;-44
2021/06/01 10:32:47;;;;;;;5.53;3.70;;;;;;;;;;5007265;28;20022;-44
2021/06/01 10:35:15;;;;;;;7.53;3.97;;;;;;;;;;4986257;28;20049;-45
2021/06/01 10:48:52;;;;;;;;;;;;;;;;;;5011302;28;20053;-44
2021/06/01 10:51:28;;;;;;;5.50;3.60;;;;;;;;;;5010889;28;19905;-43
2021/06/01 10:53:54;;;;;;;6.25;3.47;;;;;;;;;;5023340;28;20034;-44
2021/06/01 10:56:21;;;;;;;6.10;4.10;;;;;;;;;;5010902;28;20026;-43
2021/06/01 10:58:49;;;;;;;6.03;3.60;;;;;;;;;;5008333;28;20022;-43
2021/06/01 11:04:09;;;;;;;5.47;3.78;;;;;;;;;;5013630;28;20045;-43
2021/06/01 11:06:53;;;;;;;5.95;4.30;;;;;;;;;;4992585;28;20156;-43
2021/06/01 11:09:34;;;;;;;7.63;4.28;;;;;;;;;;5010119;28;20026;-42
2021/06/01 11:12:20;;;;;;;6.53;3.85;;;;;;;;;;5009389;28;20034;-42
2021/06/01 11:14:47;;;;;;;7.50;4.32;;;;;;;;;;5006355;28;20157;-41
2021/06/01 11:17:14;;;;;;;;;;;;;;;;;;5010930;28;20022;-41
2021/06/01 11:19:59;;;;;;;5.40;3.90;;;;;;;;;;4979626;28;19905;-42
2021/06/01 11:33:28;;;;;;;8.55;3.65;;;;;;;;;;5013848;28;20053;-41
2021/06/01 11:36:10;;;;;;;7.28;4.10;;;;;;;;;;5009616;28;20358;-40
2021/06/01 11:38:47;;;;;;;5.88;4.25;;;;;;;;;;5009408;28;20073;-45
2021/06/01 11:44:20;;;;;;;6.47;3.92;;;;;;;;;;4953982;28;20111;-42
2021/06/01 11:46:59;;;;;;;6.40;3.85;;;;;;;;;;5010819;28;20052;-42
2021/06/01 11:52:10;;;;;;;5.30;3.92;;;;;;;;;;5005251;28;20041;-41
2021/06/01 11:54:37;;;;;;;5.07;3.77;;;;;;;;;;4990243;28;20125;-41
2021/06/01 11:57:08;;;;;;;4.47;3.97;;;;;;;;;;4982180;28;20339;-41
2021/06/01 12:18:42;;;;;;;3.85;3.38;;;;;;;;;;4917585;29;20043;-42
2021/06/01 12:21:19;;;;;;;7.55;4.05;;;;;;;;;;4985640;28;20074;-41
2021/06/01 12:23:51;;;;;;;4.25;3.80;;;;;;;;;;5009645;28;20077;-44
2021/06/01 12:32:08;;;;;;;6.25;3.42;;;;;;;;;;5006163;28;20396;-42
2021/06/01 12:42:47;;;;;;;5.22;3.70;;;;;;;;;;5023310;28;20044;-42
2021/06/01 13:06:19;;;;;;;4.22;3.72;;;;;;;;;;5008687;28;20084;-46
2021/06/01 13:15:01;;;;;;;4.80;3.30;;;;;;;;;;4989974;28;20212;-45
2021/06/01 13:22:32;;;;;;;5.00;3.75;;;;;;;;;;5011656;28;20544;-46
2021/06/01 13:30:39;;;;;;;3.78;3.13;;;;;;;;;;5009678;28;20116;-47
2021/06/01 13:46:47;;;;;;;3.85;3.20;;;;;;;;;;5015127;28;20032;-48
2021/06/01 13:49:25;;;;;;;4.18;3.20;;;;;;;;;;4997871;28;20470;-47
2021/06/01 13:57:16;;;;;;;4.18;2.97;;;;;;;;;;5007125;28;20095;-45
2021/06/01 14:10:47;;;;;;;3.50;3.10;;;;;;;;;;5011457;28;20469;-44
2021/06/01 15:10:18;;;;;;;3.20;2.90;;;;;;;;;;4990403;28;20228;-46
2021/06/01 15:51:07;;;;;;;4.63;2.78;;;;;;;;;;5008201;28;20034;-42
2021/06/01 16:29:41;;;;;;;3.97;3.38;;;;;;;;;;4991097;28;20375;-42
2021/06/01 17:04:52;;;;;;;4.53;3.22;;;;;;;;;;5007626;28;20161;-42
2021/06/01 17:13:05;;;;;;;3.80;3.30;;;;;;;;;;4993982;28;20398;-41
2021/06/01 17:15:39;;;;;;;4.72;3.15;;;;;;;;;;5003382;28;20097;-46
2021/06/01 17:34:36;;;;;;;4.90;3.63;;;;;;;;;;4998176;28;20041;-49
2021/06/01 21:23:18;;;;;;;6.07;4.93;;;;;;;;;;4978712;23;20450;-45
2021/06/01 21:25:44;;;;;;;5.50;4.63;;;;;;;;;;4994244;28;20034;-47
2021/06/01 21:28:10;;;;;;;6.30;4.60;;;;;;;;;;4975855;28;20057;-45
2021/06/01 21:30:37;;;;;;;5.80;4.33;;;;;;;;;;4994094;28;20041;-46
2021/06/01 21:33:13;;;;;;;7.20;3.85;;;;;;;;;;4993648;28;20030;-47
2021/06/01 21:35:41;;;;;;;5.57;3.63;;;;;;;;;;4993955;28;20037;-46
2021/06/01 21:38:08;;;;;;;9.85;3.38;;;;;;;;;;4993712;28;20351;-49
2021/06/01 21:40:35;;;;;;;6.40;3.58;;;;;;;;;;4993673;28;20403;-47
2021/06/01 21:43:03;;;;;;;4.78;2.88;;;;;;;;;;4993254;28;20057;-46
2021/06/01 21:45:30;;;;;;;4.88;2.60;;;;;;;;;;4993304;28;20030;-47
2021/06/01 21:47:58;;;;;;;8.05;3.40;;;;;;;;;;4991997;28;20025;-47
2021/06/01 21:50:25;;;;;;;4.90;2.95;;;;;;;;;;4974960;28;20026;-47
2021/06/01 21:52:51;;;;;;;3.38;2.50;;;;;;;;;;4993496;28;20022;-46
2021/06/01 21:55:21;;;;;;;4.25;2.38;;;;;;;;;;4991415;28;20034;-46
2021/06/01 21:57:47;;;;;;;4.78;2.20;;;;;;;;;;4967631;28;20023;-44
